Map

Track Data

SID SEASON NUMBER BASIN SUBBASIN NAME ISO_TIME NATURE LAT LON WMO_WIND WMO_PRES WMO_AGENCY TRACK_TYPE DIST2LAND LANDFALL IFLAG USA_AGENCY USA_ATCF_ID USA_LAT USA_LON USA_RECORD USA_STATUS USA_WIND USA_PRES USA_SSHS USA_R34_NE USA_R34_SE USA_R34_SW USA_R34_NW USA_R50_NE USA_R50_SE USA_R50_SW USA_R50_NW USA_R64_NE USA_R64_SE USA_R64_SW USA_R64_NW USA_POCI USA_ROCI USA_RMW USA_EYE TOKYO_LAT TOKYO_LON TOKYO_GRADE TOKYO_WIND TOKYO_PRES TOKYO_R50_DIR TOKYO_R50_LONG TOKYO_R50_SHORT TOKYO_R30_DIR TOKYO_R30_LONG TOKYO_R30_SHORT TOKYO_LAND CMA_LAT CMA_LON CMA_CAT CMA_WIND CMA_PRES HKO_LAT HKO_LON HKO_CAT HKO_WIND HKO_PRES NEWDELHI_LAT NEWDELHI_LON NEWDELHI_GRADE NEWDELHI_WIND NEWDELHI_PRES NEWDELHI_CI NEWDELHI_DP NEWDELHI_POCI REUNION_LAT REUNION_LON REUNION_TYPE REUNION_WIND REUNION_PRES REUNION_TNUM REUNION_CI REUNION_RMW REUNION_R34_NE REUNION_R34_SE REUNION_R34_SW REUNION_R34_NW REUNION_R50_NE REUNION_R50_SE REUNION_R50_SW REUNION_R50_NW REUNION_R64_NE REUNION_R64_SE REUNION_R64_SW REUNION_R64_NW BOM_LAT BOM_LON BOM_TYPE BOM_WIND BOM_PRES BOM_TNUM BOM_CI BOM_RMW BOM_R34_NE BOM_R34_SE BOM_R34_SW BOM_R34_NW BOM_R50_NE BOM_R50_SE BOM_R50_SW BOM_R50_NW BOM_R64_NE BOM_R64_SE BOM_R64_SW BOM_R64_NW BOM_ROCI BOM_POCI BOM_EYE BOM_POS_METHOD BOM_PRES_METHOD NADI_LAT NADI_LON NADI_CAT NADI_WIND NADI_PRES WELLINGTON_LAT WELLINGTON_LON WELLINGTON_WIND WELLINGTON_PRES DS824_LAT DS824_LON DS824_STAGE DS824_WIND DS824_PRES TD9636_LAT TD9636_LON TD9636_STAGE TD9636_WIND TD9636_PRES TD9635_LAT TD9635_LON TD9635_WIND TD9635_PRES TD9635_ROCI NEUMANN_LAT NEUMANN_LON NEUMANN_CLASS NEUMANN_WIND NEUMANN_PRES MLC_LAT MLC_LON MLC_CLASS MLC_WIND MLC_PRES USA_GUST BOM_GUST BOM_GUST_PER REUNION_GUST REUNION_GUST_PER USA_SEAHGT USA_SEARAD_NE USA_SEARAD_SE USA_SEARAD_SW USA_SEARAD_NW STORM_SPEED STORM_DIR
1959092S10135 1959 30 SP EA NOT_NAMED 1959-04-02 06:00:00 TS -10.0000 135.000 main 236 219 _________O____ -1 -10.0000 135.000 TC 15 1006 8 273
1959092S10135 1959 30 SI WA NOT_NAMED 1959-04-02 09:00:00 TS -9.97808 134.603 main 219 206 _________P____ -1 -9.97808 134.603 TC 8 273
1959092S10135 1959 30 SI WA NOT_NAMED 1959-04-02 12:00:00 TS -9.95792 134.208 main 206 194 _________P____ -1 -9.95792 134.208 TC 8 273
1959092S10135 1959 30 SI WA NOT_NAMED 1959-04-02 15:00:00 TS -9.94176 133.818 main 194 189 _________P____ -1 -9.94176 133.818 TC 4 272
1959092S10135 1959 30 SI WA NOT_NAMED 1959-04-02 17:30:00 TS -9.94638 133.798 1006 bom main 194 191 ______O__P____ -1 -10.0000 135.000 1006 -9.93297 133.497 TC 2 96
1959092S10135 1959 30 SI WA NOT_NAMED 1959-04-02 18:00:00 TS -9.95356 133.934 main 191 179 ______P__P____ -1 -9.99699 134.934 -9.93185 133.433 TC 2 267
1959092S10135 1959 30 SI WA NOT_NAMED 1959-04-02 21:00:00 TS -9.95132 133.693 main 179 179 ______P__P____ -1 -9.97914 134.541 -9.93045 133.058 TC 3 263
1959092S10135 1959 30 SI WA NOT_NAMED 1959-04-02 23:00:00 TS -9.97931 133.708 main 179 179 ______P__PO___ -1 -9.96807 134.280 -9.93536 132.812 TC -10.2000 135.000 1 4 107
1959092S10135 1959 30 SI WA NOT_NAMED 1959-04-03 00:00:00 TS -10.0100 133.889 main 191 179 O_____P__PP___ jtwc_sh SH291959 -10.1000 134.800 -1 -9.96299 134.150 -9.93983 132.692 TC -10.1542 134.850 1 0 0
1959092S10135 1959 30 SI WA NOT_NAMED 1959-04-03 03:00:00 TS -9.97976 133.682 main 179 169 P_____P__PP___ SH291959 -9.99508 134.402 -1 -9.95040 133.763 -9.96225 132.339 TC -10.0218 134.405 1 5 279
1959092S10135 1959 30 SI WA NOT_NAMED 1959-04-03 06:00:00 TS -9.93365 133.412 main 176 169 O_____P__OP___ jtwc_sh SH291959 -9.90000 134.000 -1 -9.94324 133.381 -10.0000 132.000 TC 25 1002 -9.90817 133.972 1 6 278
1959092S10135 1959 30 SI WA NOT_NAMED 1959-04-03 09:00:00 TS -9.89626 133.086 main 169 155 P_____P__PP___ SH291959 -9.82748 133.592 -1 -9.94339 133.007 -10.0551 131.678 TC -9.82783 133.559 1 7 274
1959092S10135 1959 30 SI WA NOT_NAMED 1959-04-03 11:00:00 TS -9.89115 132.838 main 155 152 P_____P__PO___ SH291959 -9.80261 133.328 -1 -9.94848 132.762 -10.1020 131.472 TC -9.80000 133.300 1 7 270
1959092S10135 1959 30 SI WA NOT_NAMED 1959-04-03 12:00:00 TS -9.89532 132.718 main 152 146 O_____P__PP___ jtwc_sh SH291959 -9.80000 133.200 -1 -9.95273 132.641 -10.1286 131.373 TC -9.79524 133.176 1 7 264
1959092S10135 1959 30 SI WA NOT_NAMED 1959-04-03 15:00:00 TS -9.93560 132.374 main 146 134 P_____P__PP___ SH291959 -9.83496 132.835 -1 -9.97315 132.286 -10.2213 131.088 TC -9.81360 132.824 1 7 261
1959092S10135 1959 30 SI WA NOT_NAMED 1959-04-03 17:30:00 TS -9.98997 132.105 1002 bom main 134 134 P_____O__PP___ SH291959 -9.88920 132.554 -1 -10.0000 132.000 1002 -10.3138 130.866 TC -9.85769 132.552 1 6 258
1959092S10135 1959 30 SI WA NOT_NAMED 1959-04-03 18:00:00 TS -10.0019 132.053 main 134 125 O_____P__PP___ jtwc_sh SH291959 -9.90000 132.500 -1 -10.0065 131.944 -10.3340 130.823 TC -9.86878 132.500 1 6 257
1959092S10135 1959 30 SI WA NOT_NAMED 1959-04-03 21:00:00 TS -10.0705 131.755 main 125 125 P_____P__PP___ SH291959 -9.94245 132.192 -1 -10.0550 131.616 -10.4674 130.581 TC -9.94511 132.195 1 6 256
1959092S10135 1959 30 SI WA NOT_NAMED 1959-04-03 23:00:00 TS -10.1241 131.567 main 130 130 P_____P__PO___ SH291959 -9.97760 131.997 -1 -10.0970 131.406 -10.5682 130.432 TC -10.0000 132.000 1 6 254
1959092S10135 1959 30 SI WA NOT_NAMED 1959-04-04 00:00:00 TS -10.1523 131.473 main 124 112 O_____P__PP___ jtwc_sh SH291959 -10.0000 131.900 -1 -10.1212 131.305 -10.6223 130.362 TC -10.0179 131.899 1 6 250
1959092S10135 1959 30 SI WA NOT_NAMED 1959-04-04 03:00:00 TS -10.2566 131.195 main 112 101 P_____P__PP___ SH291959 -10.1000 131.593 -1 -10.2077 131.015 -10.7996 130.168 TC -10.0757 131.607 1 6 247
1959092S10135 1959 30 SI WA NOT_NAMED 1959-04-04 06:00:00 TS -10.3723 130.935 main 103 90 O_____P__OP___ jtwc_sh SH291959 -10.2000 131.300 -1 -10.3173 130.748 -11.0000 130.000 TC 30 1000 -10.1444 131.329 1 5 243
1959092S10135 1959 30 SI WA NOT_NAMED 1959-04-04 09:00:00 TS -10.4950 130.714 main 90 78 P_____P__PP___ SH291959 -10.2500 131.042 -1 -10.4527 130.508 -11.2924 129.911 TC -10.2302 131.067 1 5 239
1959092S10135 1959 30 SI WA NOT_NAMED 1959-04-04 11:00:00 TS -10.5861 130.580 main 78 78 P_____P__PO___ SH291959 -10.2802 130.881 -1 -10.5586 130.364 -11.5113 129.875 TC -10.3000 130.900 1 5 235
1959092S10135 1959 30 SI WA NOT_NAMED 1959-04-04 12:00:00 TS -10.6344 130.514 main 78 57 O_____P__PP___ jtwc_sh SH291959 -10.3000 130.800 -1 -10.6165 130.298 -11.6268 129.863 TC -10.3289 130.810 1 5 231
1959092S10135 1959 30 SI WA NOT_NAMED 1959-04-04 15:00:00 TS -10.7941 130.317 main 60 49 P_____P__PP___ SH291959 -10.3700 130.535 -1 -10.8116 130.120 -11.9915 129.848 TC -10.4274 130.546 1 5 226
1959092S10135 1959 30 SI WA NOT_NAMED 1959-04-04 17:30:00 TS -10.9576 130.173 1000 bom main 44 44 P_____O__PP___ SH291959 -10.4720 130.335 -1 -11.0000 130.000 1000 -12.3102 129.852 TC -10.5336 130.344 1 5 220
1959092S10135 1959 30 SI WA NOT_NAMED 1959-04-04 18:00:00 TS -10.9957 130.148 main 46 24 O_____P__PP___ jtwc_sh SH291959 -10.5000 130.300 -1 -11.0449 129.980 -12.3749 129.854 TC -10.5585 130.306 1 6 206
1959092S10135 1959 30 SI WA NOT_NAMED 1959-04-04 21:00:00 TS -11.2545 130.021 main 24 10 P_____P__PP___ SH291959 -10.7125 130.120 -1 -11.3418 129.886 -12.7651 129.872 TC -10.7408 130.105 1 6 202
1959092S10135 1959 30 SI WA NOT_NAMED 1959-04-04 23:00:00 TS -11.4559 129.959 main 10 10 P_____P__PO___ SH291959 -10.8974 130.033 -1 -11.5615 129.844 -13.0232 129.886 TC -10.9000 130.000 1 6 194
1959092S10135 1959 30 SI WA NOT_NAMED 1959-04-05 00:00:00 TS -11.5641 129.936 main 24 21 O_____P__PP___ jtwc_sh SH291959 -11.0000 130.000 -1 -11.6764 129.829 -13.1503 129.893 TC -10.9936 129.959 1 7 189
1959092S10135 1959 30 SI WA NOT_NAMED 1959-04-05 03:00:00 TS -11.9066 129.890 main 24 24 P_____P__PP___ SH291959 -11.3275 129.935 -1 -12.0356 129.802 -13.5189 129.905 TC -11.3234 129.872 1 7 185
1959092S10135 1959 30 SI WA NOT_NAMED 1959-04-05 06:00:00 TS -12.2746 129.865 main 60 55 O_____P__PP___ jtwc_sh SH291959 -11.7000 129.900 -1 -12.4064 129.794 -13.8590 129.900 TC -11.7074 129.829 1 7 184
1959092S10135 1959 30 SI WA NOT_NAMED 1959-04-05 09:00:00 TS -12.6481 129.832 main 55 34 P_____P__PP___ SH291959 -12.0925 129.843 -1 -12.7757 129.799 -14.1590 129.867 TC -12.1207 129.809 1 8 186
1959092S10135 1959 30 SI WA NOT_NAMED 1959-04-05 11:00:00 TS -12.8947 129.810 main 34 32 P_____P__PO___ SH291959 -12.3640 129.811 -1 -13.0147 129.804 -14.3308 129.825 TC -12.4000 129.800 1 7 187
1959092S10135 1959 30 SI WA NOT_NAMED 1959-04-05 12:00:00 TS -13.0147 129.801 main 32 22 O_____P__PP___ jtwc_sh SH291959 -12.5000 129.800 -1 -13.1305 129.806 -14.4070 129.796 TC -12.5361 129.800 1 7 184
1959092S10135 1959 30 SI WA NOT_NAMED 1959-04-05 15:00:00 TS -13.3603 129.780 main 11 0 P_____P__PP___ SH291959 -12.9000 129.800 -1 -13.4578 129.809 -14.5912 129.677 TC -12.9524 129.813 1 7 185
1959092S10135 1959 30 SI WA NOT_NAMED 1959-04-05 17:30:00 TS -13.6305 129.751 990 bom main 0 0 P_____O__PP___ SH291959 -13.2333 129.802 -1 -13.7000 129.800 990 4 -14.6876 129.534 TC -13.2983 129.816 1 7 187
1959092S10135 1959 30 SI WA NOT_NAMED 1959-04-05 18:00:00 TS -13.6814 129.742 main 10 0 O_____P__OP___ jtwc_sh SH291959 -13.3000 129.800 -1 -13.7406 129.798 -14.7000 129.500 TC -13.3663 129.814 1 6 192
1959092S10135 1959 30 SI WA NOT_NAMED 1959-04-05 21:00:00 TS -13.9701 129.676 main 0 0 P_____P__PP___ SH291959 -13.7149 129.795 -1 -13.9693 129.779 -14.6922 129.240 TC -13.7591 129.771 1 6 196
1959092S10135 1959 30 SI WA NOT_NAMED 1959-04-05 23:00:00 TS -14.1462 129.599 main 0 0 P_____P__PO___ SH291959 -13.9780 129.748 -1 -14.1149 129.755 -14.6602 129.047 TC -14.0000 129.700 1 6 207
1959092S10135 1959 30 SI WA NOT_NAMED 1959-04-06 00:00:00 TS -14.2283 129.542 main 0 0 O_____P__PP___ jtwc_sh SH291959 -14.1000 129.700 -1 -14.1880 129.737 -14.6390 128.945 TC -14.1147 129.629 1 6 219
1959092S10135 1959 30 SI WA NOT_NAMED 1959-04-06 01:30:00 TS -14.3455 129.432 bom main 0 0 P_____O__PP___ SH291959 -14.2725 129.586 -1 -14.3000 129.700 -14.6035 128.788 TC -14.2790 129.500 1 7 225
1959092S10135 1959 30 SI WA NOT_NAMED 1959-04-06 03:00:00 TS -14.4590 129.303 main 15 15 P_____P__PP___ SH291959 -14.4301 129.438 -1 -14.4346 129.660 -14.5663 128.627 TC -14.4338 129.353 1 7 232
1959092S10135 1959 30 SI WA NOT_NAMED 1959-04-06 06:00:00 TS -14.6574 129.014 main 31 31 O_____P__OP___ jtwc_sh SH291959 -14.7000 129.100 -1 -14.6716 129.530 -14.5000 128.300 TC 20 1004 -14.7152 129.038 1 7 234
1959092S10135 1959 30 SI WA NOT_NAMED 1959-04-06 06:30:00 TS -14.6934 128.966 bom main 31 11 P_____O__PP___ SH291959 -14.7536 129.046 -1 -14.7000 129.500 -14.5014 128.252 TC -14.7584 128.986 1 7 239
1959092S10135 1959 30 SI WA NOT_NAMED 1959-04-06 09:00:00 TS -14.8296 128.714 main 11 0 P_____P__PP___ SH291959 -14.9975 128.778 -1 -14.6700 129.254 -14.5244 128.014 TC -14.9586 128.747 1 6 246
1959092S10135 1959 30 SI WA NOT_NAMED 1959-04-06 11:00:00 TS -14.8863 128.519 main 0 0 P_____P__PO___ SH291959 -15.1014 128.583 -1 -14.5685 129.005 -14.5601 127.826 TC -15.1000 128.600 1 6 257
1959092S10135 1959 30 SI WA NOT_NAMED 1959-04-06 12:00:00 TS -14.8933 128.435 main 10 0 O_____P__PP___ jtwc_sh SH291959 -15.1000 128.500 -1 -14.5120 128.875 -14.5829 127.732 TC -15.1716 128.570 1 4 286
1959092S10135 1959 30 SI WA NOT_NAMED 1959-04-06 15:00:00 TS -14.8080 128.229 main 0 0 P_____P__PP___ SH291959 -14.8024 128.320 -1 -14.4062 128.511 -14.6680 127.452 TC -15.3610 128.545 1 4 297
1959092S10135 1959 30 SI WA NOT_NAMED 1959-04-06 17:30:00 TS -14.7324 128.104 1004 bom main 0 0 P_____O__PP___ SH291959 -14.4584 128.218 -1 -14.5000 128.300 1004 -14.7538 127.217 TC -15.4914 128.568 1 3 299
1959092S10135 1959 30 SI WA NOT_NAMED 1959-04-06 18:00:00 TS -14.7287 128.085 main 0 0 O_____P__PP___ jtwc_sh SH291959 -14.4000 128.200 -1 -14.5565 128.278 1004 -14.7722 127.170 TC -15.5147 128.574 1 2 268
1959092S10135 1959 30 SI WA NOT_NAMED 1959-04-06 20:30:00 TS -14.7374 127.982 1004 bom main 0 0 P_____O__PP___ SH291959 -14.1505 128.089 -1 -14.9000 128.200 1004 -14.8683 126.931 TC -15.6178 128.602 1 2 263
1959092S10135 1959 30 SI WA NOT_NAMED 1959-04-06 21:00:00 TS -14.7434 127.962 main 0 0 P_____P__PP___ SH291959 -14.1150 128.070 -1 -14.9631 128.183 -14.8882 126.883 TC -15.6358 128.605 1 3 237
1959092S10135 1959 30 SI WA NOT_NAMED 1959-04-06 23:00:00 TS -14.7977 127.885 main 0 0 P_____P__PO___ SH291959 -14.0596 128.014 -1 -15.2011 128.111 -14.9683 126.688 TC -15.7000 128.600 2 3 224
1959092S10135 1959 30 SI WA NOT_NAMED 1959-04-07 00:00:00 TS -14.8496 127.850 main 0 0 O_____P__PP___ jtwc_sh SH291959 -14.1000 128.000 -1 -15.3111 128.072 -15.0084 126.589 TC -15.7287 128.591 2 5 198
1959092S10135 1959 30 SI WA NOT_NAMED 1959-04-07 03:00:00 TS -15.1313 127.773 main 0 0 P_____P__PP___ SH291959 -14.5675 128.050 -1 -15.6042 127.942 -15.1255 126.284 TC -15.7921 128.540 2 6 195
1959092S10135 1959 30 SI WA NOT_NAMED 1959-04-07 06:00:00 TS -15.4610 127.675 main 0 0 O_____P__PP___ jtwc_sh SH291959 -15.2000 128.100 -1 -15.8390 127.783 -15.2318 125.966 TC -15.8341 128.425 2 6 203
1959092S10135 1959 30 SI WA NOT_NAMED 1959-04-07 09:00:00 TS -15.7075 127.524 main 0 0 P_____P__PP___ SH291959 -15.6672 128.097 -1 -16.0121 127.583 -15.3200 125.631 TC -15.8708 128.213 2 6 219
1959092S10135 1959 30 SI WA NOT_NAMED 1959-04-07 11:00:00 TS -15.8348 127.363 main 0 0 P_____P__PO___ SH291959 -15.9086 127.998 -1 -16.0917 127.423 -15.3650 125.397 TC -15.9000 128.000 2 6 236
1959092S10135 1959 30 SI WA NOT_NAMED 1959-04-07 12:00:00 TS -15.8872 127.253 main 0 0 O_____P__PP___ jtwc_sh SH291959 -16.0000 127.900 -1 -16.1203 127.333 -15.3825 125.277 TC -15.9332 127.855 2 9 254
1959092S10135 1959 30 SI WA NOT_NAMED 1959-04-07 15:00:00 TS -15.9870 126.796 main 0 0 P_____P__PP___ SH291959 -16.1603 127.368 -1 -16.1599 127.024 -15.4116 124.901 TC -16.0426 127.320 2 10 263
1959092S10135 1959 30 SI WA NOT_NAMED 1959-04-07 18:00:00 TS -16.0139 126.249 main 0 0 O_____P__OP___ jtwc_sh SH291959 -16.2000 126.700 -1 -16.1275 126.644 -15.4000 124.500 TC -16.1419 126.700 2 10 268
1959092S10135 1959 30 SI WA NOT_NAMED 1959-04-07 19:00:00 TS -16.0165 126.069 1006 bom main 0 0 P_____O__PP___ SH291959 -16.2219 126.500 -1 -16.1000 126.500 1006 -15.3715 124.356 TC -16.1673 126.489 2 10 271
1959092S10135 1959 30 SI WA NOT_NAMED 1959-04-07 21:00:00 TS -16.0014 125.706 main 0 0 P_____P__PP___ SH291959 -16.2450 126.113 -1 -16.0125 126.169 -15.3046 124.061 TC -16.1997 126.077 2 10 275
1959092S10135 1959 30 SI WA NOT_NAMED 1959-04-07 23:00:00 TS -15.9556 125.357 main 0 0 P_____P__PO___ SH291959 -16.2281 125.758 -1 -15.8917 125.809 -15.2301 123.758 TC -16.2000 125.700 1 10 280
1959092S10135 1959 30 SI WA NOT_NAMED 1959-04-08 00:00:00 TS -15.9187 125.196 main 0 0 O_____P__PP___ jtwc_sh SH291959 -16.2000 125.600 -1 -15.8230 125.622 -15.1919 123.606 TC -16.1786 125.553 1 9 289
1959092S10135 1959 30 SI WA NOT_NAMED 1959-04-08 03:00:00 TS -15.7562 124.760 main 0 0 P_____P__PP___ SH291959 -16.0148 125.220 -1 -15.6037 125.051 -15.0831 123.149 TC -16.0647 125.162 1 9 293
1959092S10135 1959 30 SI WA NOT_NAMED 1959-04-08 06:00:00 TS -15.5801 124.365 bom main 0 0 O_____O__OP___ jtwc_sh SH291959 -15.8000 124.900 -1 -15.4000 124.500 -15.0000 122.700 TC 25 1003 -15.9006 124.823 1 8 291
1959092S10135 1959 30 SI WA NOT_NAMED 1959-04-08 09:00:00 TS -15.4622 123.980 main 44 44 P_____P__PP___ SH291959 -15.6924 124.550 -1 -15.2571 124.020 -14.9514 122.272 TC -15.7174 124.510 1 8 287
1959092S10135 1959 30 SI WA NOT_NAMED 1959-04-08 11:00:00 TS -15.3962 123.729 main 78 78 P_____P__PO___ SH291959 -15.6338 124.317 -1 -15.1783 123.718 -14.9353 121.993 TC -15.6000 124.300 1 8 285
1959092S10135 1959 30 SI WA NOT_NAMED 1959-04-08 12:00:00 TS -15.3659 123.602 main 88 88 O_____P__PP___ jtwc_sh SH291959 -15.6000 124.200 -1 -15.1438 123.571 -14.9322 121.855 TC -15.5537 124.185 1 8 285
1959092S10135 1959 30 SI WA NOT_NAMED 1959-04-08 15:00:00 TS -15.2649 123.227 main 114 114 P_____P__PP___ SH291959 -15.4499 123.850 -1 -15.0611 123.145 -14.9436 121.451 TC -15.4197 123.839 1 7 285
1959092S10135 1959 30 SI WA NOT_NAMED 1959-04-08 18:00:00 TS -15.1780 122.857 main 140 140 O_____P__PP___ jtwc_sh SH291959 -15.3000 123.500 -1 -15.0099 122.734 -14.9868 121.057 TC -15.2935 123.491 1 7 283
1959092S10135 1959 30 SI WA NOT_NAMED 1959-04-08 19:00:00 TS -15.1577 122.735 1003 bom main 147 147 P_____O__PP___ SH291959 -15.2635 123.386 -1 -15.0000 122.600 1003 -15.0085 120.929 TC -15.2531 123.375 1 7 279
1959092S10135 1959 30 SI WA NOT_NAMED 1959-04-08 21:00:00 TS -15.1210 122.490 main 162 162 P_____P__PP___ SH291959 -15.1999 123.158 -1 -14.9673 122.318 -15.0629 120.676 TC -15.1748 123.139 1 7 278
1959092S10135 1959 30 SI WA NOT_NAMED 1959-04-08 23:00:00 TS -15.0903 122.242 main 173 173 P_____P__PO___ SH291959 -15.1364 122.922 -1 -14.9461 122.039 -15.1324 120.428 TC -15.1000 122.900 1 7 278
1959092S10135 1959 30 SI WA NOT_NAMED 1959-04-09 00:00:00 TS -15.0733 122.118 main 178 178 O_____P__PP___ jtwc_sh SH291959 -15.1000 122.800 -1 -14.9400 121.902 -15.1730 120.306 TC -15.0534 122.781 1 7 279
1959092S10135 1959 30 SI WA NOT_NAMED 1959-04-09 03:00:00 TS -15.0118 121.732 main 211 211 P_____P__PP___ SH291959 -14.9425 122.400 -1 -14.9407 121.495 -15.3183 119.947 TC -14.9150 122.418 1 8 278
1959092S10135 1959 30 SI WA NOT_NAMED 1959-04-09 06:00:00 TS -14.9735 121.349 main 239 239 O_____P__OP___ jtwc_sh SH291959 -14.8000 122.000 -1 -14.9714 121.097 -15.5000 119.600 TC 25 1003 -14.7960 122.047 1 7 272
1959092S10135 1959 30 SI WA NOT_NAMED 1959-04-09 09:00:00 TS -14.9822 120.985 main 263 263 P_____P__PP___ SH291959 -14.7198 121.658 -1 -15.0341 120.710 -15.7191 119.234 TC -14.7182 121.664 1 7 266
1959092S10135 1959 30 SI WA NOT_NAMED 1959-04-09 11:00:00 TS -15.0166 120.741 main 286 286 P_____P__PO___ SH291959 -14.6999 121.425 -1 -15.0946 120.458 -15.8886 118.995 TC -14.7000 121.400 1 7 261
1959092S10135 1959 30 SI WA NOT_NAMED 1959-04-09 12:00:00 TS -15.0419 120.614 main 294 286 O_____P__PP___ jtwc_sh SH291959 -14.7000 121.300 -1 -15.1307 120.334 -15.9794 118.877 TC -14.6992 121.260 1 8 257
1959092S10135 1959 30 SI WA NOT_NAMED 1959-04-09 15:00:00 TS -15.1396 120.209 main 316 309 P_____P__PP___ SH291959 -14.7125 120.857 -1 -15.2635 119.969 -16.2719 118.533 TC -14.7377 120.828 1 8 252
1959092S10135 1959 30 SI WA NOT_NAMED 1959-04-09 18:00:00 TS -15.2909 119.802 main 334 334 O_____P__PP___ jtwc_sh SH291959 -14.8000 120.400 -1 -15.4343 119.615 -16.5875 118.203 TC -14.8328 120.390 1 8 247
1959092S10135 1959 30 SI WA NOT_NAMED 1959-04-09 19:00:00 TS -15.3542 119.673 1003 bom main 336 336 P_____O__PP___ SH291959 -14.8495 120.261 -1 -15.5000 119.500 1003 -16.6962 118.097 TC -14.8759 120.246 1 8 241
1959092S10135 1959 30 SI WA NOT_NAMED 1959-04-09 21:00:00 TS -15.4995 119.419 main 357 357 P_____P__PP___ SH291959 -14.9774 119.993 -1 -15.6473 119.254 -16.9171 117.892 TC -14.9782 119.966 1 9 237
1959092S10135 1959 30 SI WA NOT_NAMED 1959-04-09 23:00:00 TS -15.6613 119.174 main 366 366 P_____P__PO___ SH291959 -15.1254 119.731 -1 -15.8154 119.012 -17.1402 117.696 TC -15.1000 119.700 1 9 236
1959092S10135 1959 30 SI WA NOT_NAMED 1959-04-10 00:00:00 TS -15.7423 119.052 main 375 375 O_____P__PP___ jtwc_sh SH291959 -15.2000 119.600 -1 -15.9063 118.892 -17.2517 117.602 TC -15.1533 119.567 1 9 236
1959092S10135 1959 30 SI WA NOT_NAMED 1959-04-10 03:00:00 TS -15.9794 118.684 main 400 400 P_____P__PP___ SH291959 -15.3850 119.177 -1 -16.2023 118.541 -17.5823 117.337 TC -15.3424 119.186 1 8 234
1959092S10135 1959 30 SI WA NOT_NAMED 1959-04-10 06:00:00 TS -16.2411 118.350 main 433 416 O_____P__OP___ jtwc_sh SH291959 -15.6000 118.800 -1 -16.5255 118.205 -17.9000 117.100 TC 20 1004 -15.5799 118.844 1 8 227
1959092S10135 1959 30 SI WA NOT_NAMED 1959-04-10 09:00:00 TS -16.5291 118.066 main 416 397 P_____P__PP___ SH291959 -15.8550 118.498 -1 -16.8660 117.886 -18.1977 116.893 TC -15.8719 118.555 1 8 220
1959092S10135 1959 30 SI WA NOT_NAMED 1959-04-10 11:00:00 TS -16.7454 117.912 main 400 390 P_____P__PO___ SH291959 -16.0719 118.353 -1 -17.0977 117.685 -18.3853 116.771 TC -16.1000 118.400 1 8 212
1959092S10135 1959 30 SI WA NOT_NAMED 1959-04-10 12:00:00 TS -16.8639 117.848 main 383 356 O_____P__PP___ jtwc_sh SH291959 -16.2000 118.300 -1 -17.2139 117.589 -18.4762 116.714 TC -16.2292 118.339 1 8 201
1959092S10135 1959 30 SI WA NOT_NAMED 1959-04-10 15:00:00 TS -17.2663 117.707 main 346 306 P_____P__PP___ SH291959 -16.6849 118.227 -1 -17.5596 117.317 -18.7383 116.559 TC -16.6636 118.206 1 9 196
1959092S10135 1959 30 SI WA NOT_NAMED 1959-04-10 18:00:00 TS -17.6833 117.604 main 306 295 O_____P__PP___ jtwc_sh SH291959 -17.2000 118.200 -1 -17.8932 117.074 -18.9869 116.423 TC -17.1365 118.122 1 8 194
1959092S10135 1959 30 SI WA NOT_NAMED 1959-04-10 19:00:00 TS -17.8115 117.566 1004 bom main 295 275 P_____O__PP___ SH291959 -17.3474 118.175 -1 -18.0000 117.000 1004 -19.0672 116.382 TC -17.2957 118.100 1 8 196
1959092S10135 1959 30 SI WA NOT_NAMED 1959-04-10 21:00:00 TS -18.0565 117.490 main 264 246 P_____P__PP___ SH291959 -17.6225 118.115 -1 -18.2056 116.863 -19.2247 116.304 TC -17.6074 118.054 1 8 197
1959092S10135 1959 30 SI WA NOT_NAMED 1959-04-10 23:00:00 TS -18.2869 117.411 main 246 246 P_____P__PO___ SH291959 -17.8776 118.042 -1 -18.4009 116.740 -19.3785 116.231 TC -17.9000 118.000 1 6 192
1959092S10135 1959 30 SI WA NOT_NAMED 1959-04-11 00:00:00 TS -18.3407 117.431 main 246 214 O_____P__PP___ jtwc_sh SH291959 -18.0000 118.000 -1 -18.4951 116.684 -19.4543 116.196 TC -18.0324 117.966 1 5 186
1959092S10135 1959 30 SI WA NOT_NAMED 1959-04-11 03:00:00 TS -18.6087 117.371 main 214 197 P_____P__PP___ SH291959 -18.3650 117.865 -1 -18.7649 116.531 -19.6785 116.096 TC -18.4051 117.859 1 5 194
1959092S10135 1959 30 SI WA NOT_NAMED 1959-04-11 06:00:00 TS -18.8545 117.301 main 187 172 O_____P__OP___ jtwc_sh SH291959 -18.7000 117.700 -1 -19.0181 116.402 -19.9000 116.000 TC 20 1005 -18.7387 117.727 1 5 197
1959092S10135 1959 30 SI WA NOT_NAMED 1959-04-11 09:00:00 TS -19.0833 117.222 main 172 148 P_____P___P___ SH291959 -19.0224 117.522 -1 -19.2578 116.291 TC -19.0304 117.551 1 5 206
1959092S10135 1959 30 SI WA NOT_NAMED 1959-04-11 11:00:00 TS -19.2599 117.097 main 148 146 P_____P___O___ SH291959 -19.2140 117.381 -1 -19.4118 116.225 TC -19.2000 117.400 1 7 220
1959092S10135 1959 30 SI WA NOT_NAMED 1959-04-11 12:00:00 TS -19.3470 116.988 main 146 123 O_____P___P___ jtwc_sh SH291959 -19.3000 117.300 -1 -19.4873 116.194 TC -19.2771 117.313 1 6 226
1959092S10135 1959 30 SI WA NOT_NAMED 1959-04-11 15:00:00 TS -19.5567 116.766 main 111 101 P_____P___P___ SH291959 -19.5176 117.018 -1 -19.7095 116.108 TC -19.4810 117.008 1 6 229
1959092S10135 1959 30 SI WA NOT_NAMED 1959-04-11 18:00:00 TS -19.7334 116.508 main 102 91 O_____P___P___ jtwc_sh SH291959 -19.7000 116.700 -1 -19.9277 116.027 TC -19.6530 116.653 1 6 238
1959092S10135 1959 30 SI WA NOT_NAMED 1959-04-11 19:00:00 NR -19.7789 116.395 1005 bom main 94 94 ______O___P___ SH291959 -1 -20.0000 116.000 1005 TC -19.7052 116.527 1 5 253
1959092S10135 1959 30 SI WA NOT_NAMED 1959-04-11 21:00:00 NR -19.8046 116.266 main 98 98 __________P___ SH291959 -1 TC -19.8046 116.266 1 6 252
1959092S10135 1959 30 SI WA NOT_NAMED 1959-04-11 23:00:00 NR -19.9000 116.000 main 107 __________O___ SH291959 -1 TC -19.9000 116.000 1 8 249

Digital Typhoon Data and Search

About IBTrACS Database

This database is a web-friendly format of International Best Track Archive for Climate Stewardship (IBTrACS), a global best track data archive curated by NOAA dating back to 1842.

Updated: 2021-12-03